Terminal Aerodrome Forecast
Issued by NWS Charleston, WV

Current Version | Previous Version | Text Only | Print | Product List | Glossary Off
Versions: 1 2 3 4 5 6 7 8 9 10 11 12 13 14 15 16 17 18 19 20 21 22 23 24 25 26

000
FTUS41 KRLX 240300 AAA
TAFBKW
TAF AMD
KBKW 240306Z 2403/2424 34005KT P6SM FEW250
     FM241100 16007KT 5SM -SN OVC015
     FM241500 21005G12KT P6SM OVC020=

USA.gov is the U.S. government's official web portal to all federal, state and local government web resources and services.